CheckWX is a tool to help pilots better visualize weather data.  It is not intended as a substitute for an official pre-flight weather briefing.

06:59:55 UTC

KTVF TAF
Thief River Falls Regional Airport
Thief River Falls, Minnesota, USA
KTVF 210524Z 2106/2206 13015KT 6SM TSRA SCT008 BKN070CB WS020/20040KT TEMPO 2106/2110 1SM +TSRA OVC015CB FM211000 22008KT 6SM SHRA VCTS OVC035CB WS020/20040KT FM211200 18007KT P6SM -SHRA VCTS OVC013CB FM212200 27018G29KT P6SM VCSH BKN070

Sep-21@
06:00 UTC

Sep-21 @ 06:00 UTC

Sep-21@
10:00 UTC

Sep-21 @ 10:00 UTC

KTVF 210524Z 2106/2206 13015KT 6SM TSRA SCT008 BKN070CB WS020/20040KT
Wind
  • 130° at 15 KTS
Conditions
Thunderstorm, Rain
Cloud Levels
  • Scattered at 800' AGL
  • Broken at 7,000' AGL

Sep-21@
06:00 UTC

Sep-21 @ 06:00 UTC

Sep-21@
10:00 UTC

Sep-21 @ 10:00 UTC

TEMPO 2106/2110 1SM +TSRA OVC015CB

Temporary

Temporary Changes expected for less than half the time period

Conditions
Heavy Thunderstorm, Heavy Rain
Cloud Levels
  • Overcast at 1,500' AGL

Sep-21@
10:00 UTC

Sep-21 @ 10:00 UTC

Sep-21@
12:00 UTC

Sep-21 @ 12:00 UTC

FM211000 22008KT 6SM SHRA VCTS OVC035CB WS020/20040KT

From

From Standard forecast or significant change

Wind
  • 220° at 8 KTS
Conditions
Rain, Area Thunderstorm
Cloud Levels
  • Overcast at 3,500' AGL

Sep-21@
12:00 UTC

Sep-21 @ 12:00 UTC

Sep-21@
22:00 UTC

Sep-21 @ 22:00 UTC

FM211200 18007KT P6SM -SHRA VCTS OVC013CB

From

From Standard forecast or significant change

Wind
  • 180° at 7 KTS
Conditions
Light Rain, Area Thunderstorm
Cloud Levels
  • Overcast at 1,300' AGL

Sep-21@
22:00 UTC

Sep-21 @ 22:00 UTC

Sep-22@
06:00 UTC

Sep-22 @ 06:00 UTC

FM212200 27018G29KT P6SM VCSH BKN070

From

From Standard forecast or significant change

Wind
  • 270° at 18 KTS
  • {Gusting to 29 KTS
Cloud Levels
  • Broken at 7,000' AGL